Main page
METAR-TAF:

METAR-TAF

Airports :

RAF Woodvale

Woodvale, England

latitude: 53-34-54N, longitude: 003-03-20W, elevation: 11 m

Current weather observation

The report was made 4 hours and 21 minutes ago, at 14:50 UTC
Wind 7 kt from the West
Temperature 18°C
Humidity 68%
Pressure 1017 hPa
Visibility 10 km or more
no clouds below 1500 m and no cumulonimbus

METAR: EGOW 211450Z 28007KT CAVOK 18/12 Q1017 RMK BLU

Time: 20:11 (19:11 UTC)

Forecast

The report was made 5 hours and 19 minutes ago, at 13:52 UTC
Forecast valid from 21 at 15 UTC to 21 at 18 UTC
Wind 9 kt from the West/Northwest
Visibility 10 km or more
Few clouds at a height of 1500 ft
Probability 30% :
Temporary
from 21 at 15 UTC to 21 at 18 UTC
Scattered clouds at a height of 1500 ft

TAF: EGOW 211352Z 2115/2118 29009KT 9999 FEW015 PROB30 TEMPO 2115/2118 SCT015

Weather observations and forecasts of more than 4000 airports (METAR and TAF reports).

The available stations are represented by yellow and red dots on the map.

Hover mouse over dot to see the name of the station.

Then click to see weather observations and forecasts.

To change the map : click on the green buttons with a black cross to zoom in, on the green button with a dash to zoom out, or on the green arrows for adjacent maps.


METAR-TAF: